N15VJ EPWR-EPKK
Flight info
| Callsign | N15VJ |
|---|---|
| Flight time | 0h 57m |
| Altitude | 29000 |
| Route | MOFKE |
| Aircraft | SF50/L-SDGRWY/L |
Departure
| Time | 2026-05-08 18:36 |
|---|---|
| Airport | Copernicus Wrocław Airport (EPWR) |
Arrival
| Time | 2026-05-08 19:33 |
|---|---|
| Airport | Kraków John Paul II International Airport (EPKK) |
| Time | Latitude | Longitude | Altitude | Speed | Heading |
|---|---|---|---|---|---|
| 2026-05-08 18:09 | 51.09957 | 16.88234 | 405 ft | 0 kts | 220° |
| 2026-05-08 18:28 | 51.09957 | 16.88233 | 406 ft | 1 kts | 206° |
| 2026-05-08 18:28 | 51.09978 | 16.88263 | 406 ft | 11 kts | 38° |
| 2026-05-08 18:28 | 51.09964 | 16.88335 | 406 ft | 6 kts | 131° |
| 2026-05-08 18:29 | 51.09937 | 16.88385 | 406 ft | 6 kts | 126° |
| 2026-05-08 18:29 | 51.09913 | 16.88431 | 406 ft | 4 kts | 132° |
| 2026-05-08 18:29 | 51.09904 | 16.88448 | 406 ft | 0 kts | 132° |
| 2026-05-08 18:29 | 51.09903 | 16.88450 | 406 ft | 0 kts | 132° |
| 2026-05-08 18:30 | 51.09864 | 16.88525 | 406 ft | 16 kts | 130° |
| 2026-05-08 18:30 | 51.09804 | 16.88642 | 406 ft | 6 kts | 128° |
| 2026-05-08 18:30 | 51.09785 | 16.88678 | 406 ft | 4 kts | 129° |
| 2026-05-08 18:30 | 51.09766 | 16.88714 | 406 ft | 5 kts | 130° |
| 2026-05-08 18:31 | 51.09736 | 16.88775 | 406 ft | 10 kts | 125° |
| 2026-05-08 18:31 | 51.09712 | 16.88901 | 406 ft | 15 kts | 99° |
| 2026-05-08 18:31 | 51.09691 | 16.89080 | 406 ft | 16 kts | 100° |
| 2026-05-08 18:31 | 51.09676 | 16.89230 | 406 ft | 12 kts | 101° |
| 2026-05-08 18:32 | 51.09663 | 16.89340 | 406 ft | 9 kts | 98° |
| 2026-05-08 18:32 | 51.09653 | 16.89435 | 406 ft | 8 kts | 99° |
| 2026-05-08 18:32 | 51.09644 | 16.89518 | 406 ft | 7 kts | 96° |
| 2026-05-08 18:32 | 51.09656 | 16.89591 | 406 ft | 4 kts | 26° |
| 2026-05-08 18:33 | 51.09684 | 16.89615 | 406 ft | 6 kts | 28° |
| 2026-05-08 18:33 | 51.09736 | 16.89655 | 406 ft | 11 kts | 24° |
| 2026-05-08 18:33 | 51.09797 | 16.89703 | 406 ft | 8 kts | 26° |
| 2026-05-08 18:33 | 51.09842 | 16.89738 | 407 ft | 6 kts | 26° |
| 2026-05-08 18:34 | 51.09882 | 16.89757 | 407 ft | 6 kts | 351° |
| 2026-05-08 18:34 | 51.09920 | 16.89715 | 407 ft | 8 kts | 299° |
| 2026-05-08 18:34 | 51.09935 | 16.89669 | 407 ft | 0 kts | 296° |
| 2026-05-08 18:35 | 51.09941 | 16.89649 | 407 ft | 16 kts | 296° |
| 2026-05-08 18:35 | 51.10095 | 16.89147 | 408 ft | 84 kts | 296° |
| 2026-05-08 18:35 | 51.10391 | 16.88194 | 782 ft | 95 kts | 298° |
| 2026-05-08 18:36 | 51.10698 | 16.87199 | 1195 ft | 105 kts | 300° |
| 2026-05-08 18:36 | 51.11072 | 16.86123 | 1610 ft | 118 kts | 303° |
| 2026-05-08 18:36 | 51.11501 | 16.84939 | 2009 ft | 133 kts | 302° |
| 2026-05-08 18:36 | 51.12012 | 16.83559 | 2483 ft | 154 kts | 302° |
| 2026-05-08 18:37 | 51.12584 | 16.82020 | 3062 ft | 167 kts | 301° |
| 2026-05-08 18:37 | 51.13185 | 16.80385 | 3684 ft | 174 kts | 301° |
| 2026-05-08 18:37 | 51.13801 | 16.78695 | 4362 ft | 178 kts | 300° |
| 2026-05-08 18:37 | 51.14422 | 16.76976 | 5036 ft | 178 kts | 299° |
| 2026-05-08 18:38 | 51.14756 | 16.75142 | 5639 ft | 171 kts | 275° |
| 2026-05-08 18:38 | 51.14962 | 16.73288 | 6237 ft | 170 kts | 289° |
| 2026-05-08 18:38 | 51.15455 | 16.71581 | 6812 ft | 169 kts | 295° |
| 2026-05-08 18:38 | 51.15964 | 16.69927 | 7350 ft | 168 kts | 295° |
| 2026-05-08 18:39 | 51.16472 | 16.68258 | 7899 ft | 167 kts | 295° |
| 2026-05-08 18:39 | 51.16981 | 16.66585 | 8442 ft | 167 kts | 295° |
| 2026-05-08 18:39 | 51.17484 | 16.64919 | 8995 ft | 166 kts | 295° |
| 2026-05-08 18:39 | 51.17985 | 16.63258 | 9545 ft | 166 kts | 295° |
| 2026-05-08 18:40 | 51.18488 | 16.61604 | 10090 ft | 165 kts | 293° |
| 2026-05-08 18:40 | 51.18984 | 16.59961 | 10574 ft | 164 kts | 296° |
| 2026-05-08 18:40 | 51.19696 | 16.58556 | 11057 ft | 165 kts | 320° |
| 2026-05-08 18:40 | 51.20708 | 16.57706 | 11539 ft | 166 kts | 341° |
| 2026-05-08 18:41 | 51.21863 | 16.57556 | 12023 ft | 170 kts | 5° |
| 2026-05-08 18:41 | 51.22880 | 16.58523 | 12488 ft | 178 kts | 52° |
| 2026-05-08 18:41 | 51.23243 | 16.60394 | 12952 ft | 182 kts | 94° |
| 2026-05-08 18:41 | 51.22752 | 16.62206 | 13430 ft | 178 kts | 129° |
| 2026-05-08 18:42 | 51.22019 | 16.63799 | 13922 ft | 178 kts | 128° |
| 2026-05-08 18:42 | 51.21312 | 16.65419 | 14348 ft | 178 kts | 128° |
| 2026-05-08 18:42 | 51.20590 | 16.67031 | 14775 ft | 178 kts | 129° |
| 2026-05-08 18:42 | 51.19872 | 16.68635 | 15201 ft | 178 kts | 129° |
| 2026-05-08 18:43 | 51.19150 | 16.70240 | 15635 ft | 178 kts | 129° |
| 2026-05-08 18:43 | 51.18674 | 16.71302 | 15912 ft | 178 kts | 129° |
| 2026-05-08 18:43 | 51.17954 | 16.72904 | 16338 ft | 177 kts | 129° |
| 2026-05-08 18:43 | 51.17004 | 16.75017 | 16900 ft | 177 kts | 129° |
| 2026-05-08 18:44 | 51.16311 | 16.76568 | 17290 ft | 170 kts | 130° |
| 2026-05-08 18:44 | 51.15841 | 16.77609 | 17544 ft | 172 kts | 130° |
| 2026-05-08 18:44 | 51.15143 | 16.79166 | 17939 ft | 173 kts | 130° |
| 2026-05-08 18:44 | 51.14441 | 16.80726 | 18337 ft | 174 kts | 130° |
| 2026-05-08 18:45 | 51.13738 | 16.82291 | 18708 ft | 174 kts | 130° |
| 2026-05-08 18:45 | 51.13044 | 16.83838 | 19050 ft | 174 kts | 130° |
| 2026-05-08 18:45 | 51.12329 | 16.85425 | 19397 ft | 174 kts | 130° |
| 2026-05-08 18:45 | 51.11623 | 16.86994 | 19740 ft | 174 kts | 130° |
| 2026-05-08 18:46 | 51.10926 | 16.88540 | 20073 ft | 174 kts | 130° |
| 2026-05-08 18:46 | 51.10218 | 16.90113 | 20411 ft | 174 kts | 130° |
| 2026-05-08 18:46 | 51.09510 | 16.91680 | 20744 ft | 174 kts | 130° |
| 2026-05-08 18:46 | 51.08800 | 16.93249 | 21039 ft | 178 kts | 130° |
| 2026-05-08 18:47 | 51.08031 | 16.94931 | 21054 ft | 198 kts | 130° |
| 2026-05-08 18:47 | 51.07183 | 16.96804 | 21052 ft | 218 kts | 129° |
| 2026-05-08 18:47 | 51.06254 | 16.98850 | 21051 ft | 239 kts | 129° |
| 2026-05-08 18:47 | 51.05244 | 17.01080 | 21050 ft | 258 kts | 129° |
| 2026-05-08 18:48 | 51.04171 | 17.03447 | 21045 ft | 273 kts | 129° |
| 2026-05-08 18:48 | 51.03035 | 17.05952 | 21045 ft | 285 kts | 129° |
| 2026-05-08 18:48 | 51.01854 | 17.08550 | 21041 ft | 294 kts | 129° |
| 2026-05-08 18:48 | 51.00642 | 17.11214 | 21039 ft | 301 kts | 128° |
| 2026-05-08 18:49 | 50.99399 | 17.13944 | 21037 ft | 307 kts | 128° |
| 2026-05-08 18:49 | 50.98138 | 17.16710 | 21038 ft | 311 kts | 128° |
| 2026-05-08 18:49 | 50.96866 | 17.19498 | 21036 ft | 315 kts | 128° |
| 2026-05-08 18:49 | 50.95575 | 17.22326 | 21031 ft | 318 kts | 128° |
| 2026-05-08 18:50 | 50.94266 | 17.25185 | 21029 ft | 321 kts | 128° |
| 2026-05-08 18:50 | 50.92951 | 17.28060 | 21031 ft | 323 kts | 128° |
| 2026-05-08 18:50 | 50.91647 | 17.30905 | 21024 ft | 324 kts | 128° |
| 2026-05-08 18:50 | 50.90316 | 17.33804 | 21022 ft | 326 kts | 128° |
| 2026-05-08 18:51 | 50.88979 | 17.36716 | 21019 ft | 327 kts | 129° |
| 2026-05-08 18:51 | 50.87640 | 17.39626 | 21024 ft | 327 kts | 129° |
| 2026-05-08 18:51 | 50.86302 | 17.42535 | 21022 ft | 328 kts | 129° |
| 2026-05-08 18:51 | 50.84958 | 17.45450 | 21022 ft | 328 kts | 129° |
| 2026-05-08 18:52 | 50.83615 | 17.48361 | 21019 ft | 328 kts | 129° |
| 2026-05-08 18:52 | 50.82268 | 17.51277 | 21016 ft | 328 kts | 129° |
| 2026-05-08 18:52 | 50.80919 | 17.54189 | 21017 ft | 328 kts | 129° |
| 2026-05-08 18:52 | 50.79569 | 17.57104 | 21018 ft | 328 kts | 129° |
| 2026-05-08 18:53 | 50.78220 | 17.60015 | 21015 ft | 328 kts | 129° |
| 2026-05-08 18:53 | 50.76867 | 17.62927 | 21017 ft | 328 kts | 129° |
| 2026-05-08 18:53 | 50.75515 | 17.65838 | 21014 ft | 328 kts | 129° |
| 2026-05-08 18:53 | 50.74163 | 17.68744 | 21014 ft | 328 kts | 129° |
| 2026-05-08 18:54 | 50.72827 | 17.71613 | 21013 ft | 328 kts | 129° |
| 2026-05-08 18:54 | 50.71458 | 17.74549 | 21010 ft | 329 kts | 129° |
| 2026-05-08 18:54 | 50.70117 | 17.77423 | 21006 ft | 328 kts | 129° |
| 2026-05-08 18:54 | 50.68762 | 17.80327 | 21006 ft | 327 kts | 127° |
| 2026-05-08 18:55 | 50.66076 | 17.86068 | 21013 ft | 326 kts | 130° |
| 2026-05-08 18:55 | 50.64719 | 17.88936 | 21010 ft | 326 kts | 129° |
| 2026-05-08 18:55 | 50.63374 | 17.91822 | 21008 ft | 326 kts | 128° |
| 2026-05-08 18:56 | 50.62044 | 17.94699 | 21008 ft | 325 kts | 129° |
| 2026-05-08 18:56 | 50.60685 | 17.97553 | 21008 ft | 325 kts | 130° |
| 2026-05-08 18:56 | 50.59481 | 18.00561 | 20996 ft | 328 kts | 118° |
| 2026-05-08 18:56 | 50.58759 | 18.03958 | 21010 ft | 327 kts | 104° |
| 2026-05-08 18:57 | 50.58487 | 18.07428 | 20409 ft | 306 kts | 91° |
| 2026-05-08 18:57 | 50.58444 | 18.09643 | 19296 ft | 308 kts | 90° |
| 2026-05-08 18:57 | 50.58334 | 18.14209 | 18356 ft | 311 kts | 94° |
| 2026-05-08 18:57 | 50.58205 | 18.17610 | 18319 ft | 315 kts | 94° |
| 2026-05-08 18:58 | 50.58098 | 18.21075 | 18311 ft | 316 kts | 93° |
| 2026-05-08 18:58 | 50.58006 | 18.24528 | 18313 ft | 317 kts | 93° |
| 2026-05-08 18:58 | 50.57901 | 18.27958 | 18300 ft | 319 kts | 94° |
| 2026-05-08 18:58 | 50.57787 | 18.31499 | 18215 ft | 322 kts | 94° |
| 2026-05-08 18:59 | 50.57677 | 18.35042 | 18108 ft | 325 kts | 93° |
| 2026-05-08 18:59 | 50.57569 | 18.38554 | 18004 ft | 327 kts | 94° |
| 2026-05-08 18:59 | 50.57453 | 18.42180 | 17893 ft | 328 kts | 94° |
| 2026-05-08 18:59 | 50.57338 | 18.45714 | 17786 ft | 328 kts | 94° |
| 2026-05-08 19:00 | 50.57205 | 18.49293 | 17678 ft | 329 kts | 94° |
| 2026-05-08 19:00 | 50.57066 | 18.52884 | 17571 ft | 328 kts | 94° |
| 2026-05-08 19:00 | 50.56937 | 18.56468 | 17465 ft | 328 kts | 94° |
| 2026-05-08 19:00 | 50.56806 | 18.60061 | 17362 ft | 329 kts | 94° |
| 2026-05-08 19:01 | 50.56661 | 18.63654 | 17239 ft | 329 kts | 94° |
| 2026-05-08 19:01 | 50.56523 | 18.67253 | 17150 ft | 330 kts | 94° |
| 2026-05-08 19:01 | 50.56389 | 18.70851 | 17046 ft | 330 kts | 94° |
| 2026-05-08 19:01 | 50.56348 | 18.74451 | 16939 ft | 329 kts | 90° |
| 2026-05-08 19:02 | 50.56379 | 18.78055 | 16836 ft | 330 kts | 89° |
| 2026-05-08 19:02 | 50.56401 | 18.81673 | 16728 ft | 330 kts | 90° |
| 2026-05-08 19:02 | 50.56413 | 18.85294 | 16628 ft | 331 kts | 90° |
| 2026-05-08 19:02 | 50.56425 | 18.88863 | 16523 ft | 331 kts | 90° |
| 2026-05-08 19:03 | 50.56442 | 18.92428 | 16424 ft | 331 kts | 90° |
| 2026-05-08 19:03 | 50.56454 | 18.96049 | 16327 ft | 331 kts | 90° |
| 2026-05-08 19:03 | 50.56465 | 18.99673 | 16226 ft | 331 kts | 90° |
| 2026-05-08 19:03 | 50.56476 | 19.03295 | 16129 ft | 331 kts | 90° |
| 2026-05-08 19:04 | 50.56486 | 19.06882 | 16025 ft | 331 kts | 90° |
| 2026-05-08 19:04 | 50.56492 | 19.10504 | 15925 ft | 332 kts | 90° |
| 2026-05-08 19:04 | 50.56497 | 19.14136 | 15822 ft | 331 kts | 90° |
| 2026-05-08 19:04 | 50.56478 | 19.17756 | 15724 ft | 331 kts | 91° |
| 2026-05-08 19:05 | 50.56450 | 19.21391 | 15620 ft | 332 kts | 91° |
| 2026-05-08 19:05 | 50.56434 | 19.25010 | 15523 ft | 328 kts | 91° |
| 2026-05-08 19:05 | 50.56419 | 19.28520 | 15418 ft | 319 kts | 91° |
| 2026-05-08 19:05 | 50.56405 | 19.32032 | 15314 ft | 322 kts | 91° |
| 2026-05-08 19:06 | 50.56389 | 19.35568 | 15216 ft | 324 kts | 91° |
| 2026-05-08 19:06 | 50.56372 | 19.39127 | 14894 ft | 327 kts | 91° |
| 2026-05-08 19:06 | 50.56354 | 19.42712 | 14454 ft | 328 kts | 91° |
| 2026-05-08 19:06 | 50.56333 | 19.46242 | 14187 ft | 326 kts | 91° |
| 2026-05-08 19:07 | 50.56310 | 19.49815 | 13970 ft | 326 kts | 91° |
| 2026-05-08 19:07 | 50.56286 | 19.53372 | 13727 ft | 324 kts | 91° |
| 2026-05-08 19:07 | 50.56268 | 19.55997 | 13550 ft | 323 kts | 91° |
| 2026-05-08 19:07 | 50.56264 | 19.59528 | 13311 ft | 322 kts | 88° |
| 2026-05-08 19:08 | 50.56072 | 19.63014 | 13041 ft | 319 kts | 104° |
| 2026-05-08 19:08 | 50.55539 | 19.66389 | 12997 ft | 316 kts | 107° |
| 2026-05-08 19:08 | 50.54550 | 19.69417 | 12984 ft | 311 kts | 131° |
| 2026-05-08 19:08 | 50.52914 | 19.71558 | 12985 ft | 304 kts | 151° |
| 2026-05-08 19:09 | 50.51069 | 19.73113 | 12965 ft | 299 kts | 161° |
| 2026-05-08 19:09 | 50.49068 | 19.73954 | 12500 ft | 297 kts | 173° |
| 2026-05-08 19:09 | 50.47026 | 19.74453 | 12064 ft | 295 kts | 175° |
| 2026-05-08 19:09 | 50.45005 | 19.74894 | 11638 ft | 292 kts | 176° |
| 2026-05-08 19:10 | 50.43018 | 19.74744 | 11191 ft | 282 kts | 198° |
| 2026-05-08 19:10 | 50.41336 | 19.73303 | 10753 ft | 274 kts | 223° |
| 2026-05-08 19:10 | 50.40273 | 19.70880 | 10328 ft | 269 kts | 247° |
| 2026-05-08 19:10 | 50.39720 | 19.68080 | 9907 ft | 268 kts | 255° |
| 2026-05-08 19:11 | 50.39276 | 19.65244 | 9451 ft | 269 kts | 256° |
| 2026-05-08 19:11 | 50.38845 | 19.62399 | 9005 ft | 268 kts | 256° |
| 2026-05-08 19:11 | 50.38420 | 19.59591 | 8572 ft | 268 kts | 256° |
| 2026-05-08 19:11 | 50.37990 | 19.56756 | 8092 ft | 267 kts | 256° |
| 2026-05-08 19:12 | 50.37559 | 19.53924 | 7588 ft | 267 kts | 256° |
| 2026-05-08 19:12 | 50.37125 | 19.51095 | 7095 ft | 266 kts | 256° |
| 2026-05-08 19:12 | 50.36691 | 19.48285 | 6601 ft | 265 kts | 256° |
| 2026-05-08 19:12 | 50.36257 | 19.45488 | 6090 ft | 264 kts | 256° |
| 2026-05-08 19:13 | 50.35818 | 19.42682 | 5577 ft | 264 kts | 256° |
| 2026-05-08 19:13 | 50.35385 | 19.39900 | 5079 ft | 263 kts | 256° |
| 2026-05-08 19:13 | 50.34954 | 19.37141 | 5003 ft | 260 kts | 256° |
| 2026-05-08 19:13 | 50.34619 | 19.34360 | 4993 ft | 262 kts | 268° |
| 2026-05-08 19:14 | 50.35022 | 19.31625 | 4992 ft | 264 kts | 295° |
| 2026-05-08 19:14 | 50.36231 | 19.29485 | 4996 ft | 266 kts | 324° |
| 2026-05-08 19:14 | 50.37965 | 19.28494 | 4997 ft | 268 kts | 352° |
| 2026-05-08 19:14 | 50.39796 | 19.28893 | 5001 ft | 269 kts | 19° |
| 2026-05-08 19:15 | 50.41510 | 19.30097 | 5003 ft | 270 kts | 25° |
| 2026-05-08 19:15 | 50.43192 | 19.31408 | 5004 ft | 270 kts | 26° |
| 2026-05-08 19:15 | 50.44713 | 19.33096 | 4992 ft | 271 kts | 46° |
| 2026-05-08 19:15 | 50.45609 | 19.35680 | 4995 ft | 271 kts | 73° |
| 2026-05-08 19:16 | 50.45725 | 19.38596 | 4992 ft | 270 kts | 99° |
| 2026-05-08 19:16 | 50.45279 | 19.41471 | 4882 ft | 272 kts | 105° |
| 2026-05-08 19:16 | 50.44777 | 19.44317 | 4699 ft | 270 kts | 106° |
| 2026-05-08 19:16 | 50.44269 | 19.47148 | 4517 ft | 269 kts | 106° |
| 2026-05-08 19:17 | 50.43757 | 19.49955 | 4334 ft | 268 kts | 106° |
| 2026-05-08 19:17 | 50.43240 | 19.52758 | 4152 ft | 266 kts | 106° |
| 2026-05-08 19:17 | 50.42722 | 19.55542 | 3995 ft | 265 kts | 106° |
| 2026-05-08 19:17 | 50.42203 | 19.58310 | 3996 ft | 265 kts | 106° |
| 2026-05-08 19:18 | 50.41680 | 19.61085 | 3994 ft | 266 kts | 106° |
| 2026-05-08 19:18 | 50.41156 | 19.63868 | 3998 ft | 266 kts | 106° |
| 2026-05-08 19:18 | 50.40637 | 19.66620 | 3995 ft | 266 kts | 106° |
| 2026-05-08 19:18 | 50.40112 | 19.69404 | 3995 ft | 266 kts | 106° |
| 2026-05-08 19:19 | 50.39582 | 19.72222 | 3995 ft | 266 kts | 106° |
| 2026-05-08 19:19 | 50.39064 | 19.74975 | 3993 ft | 266 kts | 106° |
| 2026-05-08 19:19 | 50.38540 | 19.77762 | 3996 ft | 266 kts | 106° |
| 2026-05-08 19:19 | 50.38016 | 19.80555 | 3991 ft | 267 kts | 106° |
| 2026-05-08 19:20 | 50.37492 | 19.83344 | 3995 ft | 267 kts | 106° |
| 2026-05-08 19:20 | 50.37316 | 19.84287 | 3998 ft | 267 kts | 106° |
| 2026-05-08 19:20 | 50.36448 | 19.88923 | 4002 ft | 267 kts | 106° |
| 2026-05-08 19:20 | 50.35924 | 19.91721 | 4000 ft | 267 kts | 106° |
| 2026-05-08 19:21 | 50.35417 | 19.94421 | 3998 ft | 267 kts | 106° |
| 2026-05-08 19:21 | 50.34899 | 19.97181 | 3998 ft | 267 kts | 106° |
| 2026-05-08 19:21 | 50.34375 | 19.99966 | 3997 ft | 267 kts | 106° |
| 2026-05-08 19:21 | 50.33848 | 20.02758 | 3996 ft | 267 kts | 106° |
| 2026-05-08 19:22 | 50.33322 | 20.05539 | 3993 ft | 267 kts | 106° |
| 2026-05-08 19:22 | 50.32794 | 20.08336 | 3993 ft | 267 kts | 106° |
| 2026-05-08 19:22 | 50.32268 | 20.11116 | 3992 ft | 267 kts | 106° |
| 2026-05-08 19:22 | 50.31741 | 20.13907 | 3995 ft | 267 kts | 106° |
| 2026-05-08 19:23 | 50.31156 | 20.16645 | 3983 ft | 262 kts | 115° |
| 2026-05-08 19:23 | 50.30019 | 20.18703 | 3975 ft | 246 kts | 146° |
| 2026-05-08 19:23 | 50.28455 | 20.19561 | 3978 ft | 236 kts | 172° |
| 2026-05-08 19:23 | 50.26827 | 20.19797 | 3981 ft | 234 kts | 176° |
| 2026-05-08 19:24 | 50.25206 | 20.19991 | 3981 ft | 234 kts | 176° |
| 2026-05-08 19:24 | 50.23581 | 20.20182 | 3980 ft | 234 kts | 176° |
| 2026-05-08 19:24 | 50.21957 | 20.20374 | 3985 ft | 234 kts | 176° |
| 2026-05-08 19:24 | 50.20336 | 20.20565 | 3982 ft | 234 kts | 176° |
| 2026-05-08 19:25 | 50.18738 | 20.20753 | 3980 ft | 233 kts | 176° |
| 2026-05-08 19:25 | 50.17117 | 20.20944 | 3982 ft | 233 kts | 176° |
| 2026-05-08 19:25 | 50.15498 | 20.21137 | 3983 ft | 233 kts | 176° |
| 2026-05-08 19:25 | 50.13911 | 20.20752 | 3982 ft | 233 kts | 204° |
| 2026-05-08 19:26 | 50.12705 | 20.19132 | 3985 ft | 231 kts | 237° |
| 2026-05-08 19:26 | 50.12255 | 20.16776 | 3991 ft | 230 kts | 269° |
| 2026-05-08 19:26 | 50.12429 | 20.14302 | 3996 ft | 230 kts | 276° |
| 2026-05-08 19:26 | 50.12386 | 20.11823 | 3993 ft | 230 kts | 262° |
| 2026-05-08 19:27 | 50.12066 | 20.09405 | 3997 ft | 223 kts | 257° |
| 2026-05-08 19:27 | 50.11742 | 20.07135 | 3994 ft | 207 kts | 259° |
| 2026-05-08 19:27 | 50.11461 | 20.04993 | 3995 ft | 198 kts | 258° |
| 2026-05-08 19:27 | 50.11171 | 20.03020 | 3810 ft | 175 kts | 258° |
| 2026-05-08 19:28 | 50.10942 | 20.01282 | 3590 ft | 153 kts | 259° |
| 2026-05-08 19:28 | 50.10719 | 19.99742 | 3396 ft | 139 kts | 258° |
| 2026-05-08 19:28 | 50.10531 | 19.98326 | 3217 ft | 129 kts | 259° |
| 2026-05-08 19:28 | 50.10342 | 19.97022 | 3057 ft | 115 kts | 259° |
| 2026-05-08 19:29 | 50.10192 | 19.95881 | 2900 ft | 101 kts | 260° |
| 2026-05-08 19:29 | 50.10044 | 19.94865 | 2778 ft | 92 kts | 260° |
| 2026-05-08 19:29 | 50.09957 | 19.94222 | 2693 ft | 90 kts | 260° |
| 2026-05-08 19:29 | 50.09778 | 19.92932 | 2537 ft | 92 kts | 261° |
| 2026-05-08 19:30 | 50.09688 | 19.92281 | 2448 ft | 93 kts | 259° |
| 2026-05-08 19:30 | 50.09550 | 19.91291 | 2323 ft | 93 kts | 260° |
| 2026-05-08 19:30 | 50.09414 | 19.90317 | 2197 ft | 93 kts | 260° |
| 2026-05-08 19:30 | 50.09279 | 19.89329 | 2068 ft | 93 kts | 259° |
| 2026-05-08 19:31 | 50.09143 | 19.88347 | 1935 ft | 92 kts | 260° |
| 2026-05-08 19:31 | 50.09008 | 19.87365 | 1800 ft | 93 kts | 259° |
| 2026-05-08 19:31 | 50.08888 | 19.86385 | 1716 ft | 91 kts | 261° |
| 2026-05-08 19:31 | 50.08782 | 19.85404 | 1587 ft | 92 kts | 260° |
| 2026-05-08 19:32 | 50.08647 | 19.84617 | 1481 ft | 93 kts | 254° |
| 2026-05-08 19:32 | 50.08466 | 19.83649 | 1353 ft | 93 kts | 257° |
| 2026-05-08 19:32 | 50.08339 | 19.82740 | 1224 ft | 95 kts | 263° |
| 2026-05-08 19:32 | 50.08235 | 19.81807 | 1074 ft | 90 kts | 259° |
| 2026-05-08 19:33 | 50.08115 | 19.80952 | 968 ft | 82 kts | 258° |
| 2026-05-08 19:33 | 50.08001 | 19.80104 | 847 ft | 75 kts | 259° |
| 2026-05-08 19:33 | 50.07907 | 19.79445 | 797 ft | 67 kts | 260° |
| 2026-05-08 19:33 | 50.07822 | 19.78837 | 796 ft | 48 kts | 259° |
| 2026-05-08 19:34 | 50.07761 | 19.78396 | 795 ft | 36 kts | 257° |
| 2026-05-08 19:34 | 50.07713 | 19.78111 | 792 ft | 13 kts | 223° |
| 2026-05-08 19:34 | 50.07668 | 19.78095 | 793 ft | 5 kts | 183° |
| 2026-05-08 19:34 | 50.07638 | 19.78093 | 793 ft | 3 kts | 183° |
| 2026-05-08 19:35 | 50.07618 | 19.78091 | 793 ft | 3 kts | 181° |
| 2026-05-08 19:35 | 50.07589 | 19.78089 | 794 ft | 5 kts | 186° |
| 2026-05-08 19:35 | 50.07544 | 19.78084 | 794 ft | 9 kts | 181° |
| 2026-05-08 19:35 | 50.07488 | 19.78091 | 794 ft | 6 kts | 144° |
| 2026-05-08 19:36 | 50.07472 | 19.78136 | 794 ft | 3 kts | 82° |
| 2026-05-08 19:36 | 50.07479 | 19.78188 | 794 ft | 8 kts | 78° |
| 2026-05-08 19:36 | 50.07493 | 19.78298 | 794 ft | 13 kts | 76° |
| 2026-05-08 19:36 | 50.07509 | 19.78414 | 794 ft | 9 kts | 78° |
| 2026-05-08 19:37 | 50.07521 | 19.78492 | 794 ft | 6 kts | 74° |
| 2026-05-08 19:37 | 50.07530 | 19.78554 | 794 ft | 6 kts | 78° |
| 2026-05-08 19:37 | 50.07539 | 19.78624 | 794 ft | 8 kts | 78° |
| 2026-05-08 19:37 | 50.07554 | 19.78731 | 794 ft | 12 kts | 75° |
| 2026-05-08 19:38 | 50.07572 | 19.78853 | 794 ft | 10 kts | 77° |
| 2026-05-08 19:38 | 50.07583 | 19.78938 | 794 ft | 6 kts | 78° |
| 2026-05-08 19:38 | 50.07589 | 19.78986 | 794 ft | 3 kts | 78° |
| 2026-05-08 19:38 | 50.07594 | 19.79022 | 794 ft | 4 kts | 78° |
| 2026-05-08 19:39 | 50.07603 | 19.79088 | 794 ft | 9 kts | 78° |
| 2026-05-08 19:39 | 50.07618 | 19.79185 | 794 ft | 12 kts | 77° |
| 2026-05-08 19:39 | 50.07634 | 19.79302 | 794 ft | 9 kts | 77° |
| 2026-05-08 19:39 | 50.07646 | 19.79390 | 794 ft | 8 kts | 79° |
| 2026-05-08 19:40 | 50.07664 | 19.79518 | 794 ft | 14 kts | 79° |
| 2026-05-08 19:40 | 50.07679 | 19.79630 | 794 ft | 10 kts | 81° |
| 2026-05-08 19:40 | 50.07659 | 19.79694 | 794 ft | 5 kts | 161° |
| 2026-05-08 19:40 | 50.07624 | 19.79708 | 794 ft | 7 kts | 168° |
| 2026-05-08 19:41 | 50.07558 | 19.79730 | 794 ft | 13 kts | 168° |
| 2026-05-08 19:41 | 50.07480 | 19.79754 | 794 ft | 12 kts | 168° |
| 2026-05-08 19:41 | 50.07453 | 19.79730 | 794 ft | 4 kts | 256° |
| 2026-05-08 19:41 | 50.07448 | 19.79693 | 794 ft | 2 kts | 259° |
| 2026-05-08 19:42 | 50.07445 | 19.79673 | 794 ft | 0 kts | 258° |
| 2026-05-08 19:42 | 50.07445 | 19.79671 | 794 ft | 0 kts | 258° |